createdAt,value
2023-02-14T00:00:06.961Z,99.99
2023-02-14T00:01:06.951Z,99.99
2023-02-14T00:02:06.942Z,99.99
2023-02-14T00:03:06.950Z,99.99
2023-02-14T00:04:06.963Z,99.99
2023-02-14T00:05:06.905Z,99.99
2023-02-14T00:06:06.898Z,99.99
2023-02-14T00:07:06.896Z,99.99
2023-02-14T00:08:06.889Z,99.99
2023-02-14T00:09:06.892Z,99.99
2023-02-14T00:10:06.870Z,99.99
2023-02-14T00:11:06.842Z,99.99
2023-02-14T00:12:06.837Z,99.99
2023-02-14T00:13:06.833Z,99.99
2023-02-14T00:14:06.808Z,99.99
2023-02-14T00:15:06.826Z,99.99
2023-02-14T00:16:06.892Z,99.99
2023-02-14T00:17:06.780Z,99.99
2023-02-14T00:18:06.776Z,99.99
2023-02-14T00:19:06.792Z,99.99
2023-02-14T00:20:06.758Z,99.99
2023-02-14T00:21:06.740Z,99.99
2023-02-14T00:22:06.725Z,99.99
2023-02-14T00:23:06.718Z,99.99
2023-02-14T00:24:06.715Z,99.99
2023-02-14T00:25:06.724Z,99.99
2023-02-14T00:26:06.684Z,99.99
2023-02-14T00:27:06.688Z,99.99
2023-02-14T00:28:06.671Z,99.99
2023-02-14T00:29:06.653Z,99.99
2023-02-14T00:30:06.682Z,99.99
2023-02-14T00:31:06.792Z,99.99
2023-02-14T00:32:06.664Z,99.99
2023-02-14T00:33:06.613Z,99.99
2023-02-14T00:34:06.613Z,99.99
2023-02-14T00:35:06.593Z,99.99
2023-02-14T00:36:06.580Z,99.99
2023-02-14T00:37:06.573Z,99.99
2023-02-14T00:38:06.558Z,99.99
2023-02-14T00:39:06.546Z,99.99
2023-02-14T00:40:06.542Z,99.99
2023-02-14T00:41:06.550Z,99.99
2023-02-14T00:42:06.525Z,99.99
2023-02-14T00:43:06.503Z,99.99
2023-02-14T00:44:06.495Z,99.99
2023-02-14T00:45:06.498Z,99.99
2023-02-14T00:46:06.527Z,99.99
2023-02-14T00:47:06.467Z,99.99
2023-02-14T00:48:06.453Z,99.99
2023-02-14T00:49:06.440Z,99.99
2023-02-14T00:50:06.429Z,99.99
2023-02-14T00:51:06.422Z,99.99
2023-02-14T00:52:06.409Z,99.99
2023-02-14T00:53:06.410Z,99.99
2023-02-14T00:54:06.436Z,99.99
2023-02-14T00:55:06.378Z,99.99
2023-02-14T00:56:06.368Z,99.99
2023-02-14T00:57:06.391Z,99.99
2023-02-14T00:58:06.348Z,99.99
2023-02-14T00:59:06.341Z,99.99
2023-02-14T01:00:06.332Z,99.99
2023-02-14T01:01:06.428Z,99.99
2023-02-14T01:02:06.434Z,99.99
2023-02-14T01:03:06.298Z,99.99
2023-02-14T01:04:06.294Z,99.99
2023-02-14T01:05:06.297Z,99.99
2023-02-14T01:06:06.272Z,99.99
2023-02-14T01:07:06.254Z,99.99
2023-02-14T01:08:06.241Z,99.99
2023-02-14T01:09:06.232Z,99.99
2023-02-14T01:10:06.223Z,99.99
2023-02-14T01:11:06.209Z,99.99
2023-02-14T01:12:06.199Z,99.99
2023-02-14T01:13:06.215Z,99.99
2023-02-14T01:14:06.178Z,99.99
2023-02-14T01:15:06.172Z,99.99
2023-02-14T01:16:06.190Z,99.99
2023-02-14T01:17:06.147Z,99.99
2023-02-14T01:18:06.134Z,99.99
2023-02-14T01:19:06.126Z,99.99
2023-02-14T01:20:06.115Z,99.99
2023-02-14T01:21:06.107Z,99.99
2023-02-14T01:22:06.100Z,99.99
2023-02-14T01:23:06.085Z,99.99
2023-02-14T01:24:06.098Z,99.99
2023-02-14T01:25:06.063Z,99.99
2023-02-14T01:26:06.050Z,99.99
2023-02-14T01:27:06.037Z,99.99
2023-02-14T01:28:06.031Z,99.99
2023-02-14T01:29:06.048Z,99.99
2023-02-14T01:30:06.106Z,99.99
2023-02-14T01:31:06.046Z,99.99
2023-02-14T01:32:06.073Z,99.99
2023-02-14T01:33:05.976Z,99.99
2023-02-14T01:34:05.981Z,99.99
2023-02-14T01:35:05.961Z,99.99
2023-02-14T01:36:05.942Z,99.99
2023-02-14T01:37:05.939Z,99.99
2023-02-14T01:38:05.926Z,99.99
2023-02-14T01:39:05.917Z,99.99
2023-02-14T01:40:05.903Z,99.99
2023-02-14T01:41:05.894Z,99.99
2023-02-14T01:42:05.883Z,99.99
2023-02-14T01:43:05.872Z,99.99
2023-02-14T01:44:05.871Z,99.99
2023-02-14T01:45:05.913Z,99.99
2023-02-14T01:46:05.925Z,99.99
2023-02-14T01:47:05.833Z,99.99
2023-02-14T01:48:05.823Z,99.99
2023-02-14T01:49:05.810Z,99.99
2023-02-14T01:50:05.798Z,99.99
2023-02-14T01:51:05.791Z,99.99
2023-02-14T01:52:05.779Z,99.99
2023-02-14T01:53:05.767Z,99.99
2023-02-14T01:54:05.768Z,99.99
2023-02-14T01:55:05.749Z,99.99
2023-02-14T01:56:05.741Z,99.99
2023-02-14T01:57:05.728Z,99.99
2023-02-14T01:58:05.716Z,99.99
2023-02-14T01:59:05.703Z,99.99
2023-02-14T02:00:05.697Z,99.99
2023-02-14T02:01:05.729Z,99.99
2023-02-14T02:02:05.721Z,99.99
2023-02-14T02:03:05.666Z,99.99
2023-02-14T02:04:05.655Z,99.99
2023-02-14T02:05:05.645Z,99.99
2023-02-14T02:06:05.635Z,99.99
2023-02-14T02:07:05.623Z,99.99
2023-02-14T02:08:05.615Z,99.99
2023-02-14T02:09:05.604Z,99.99
2023-02-14T02:10:05.592Z,99.99
2023-02-14T02:11:05.587Z,99.99
2023-02-14T02:12:05.573Z,99.99
2023-02-14T02:13:05.559Z,99.99
2023-02-14T02:14:05.547Z,99.99
2023-02-14T02:15:05.644Z,99.99
2023-02-14T02:16:05.530Z,99.99
2023-02-14T02:17:05.548Z,99.99
2023-02-14T02:18:05.515Z,99.99
2023-02-14T02:19:05.502Z,99.99
2023-02-14T02:20:05.492Z,99.99
2023-02-14T02:21:05.476Z,99.99
2023-02-14T02:22:05.467Z,99.99
2023-02-14T02:23:05.452Z,99.99
2023-02-14T02:24:05.441Z,99.99
2023-02-14T02:25:05.434Z,99.99
2023-02-14T02:26:05.420Z,99.99
2023-02-14T02:27:06.396Z,99.99
2023-02-14T02:28:05.403Z,99.99
2023-02-14T02:29:05.391Z,99.99
2023-02-14T02:30:05.473Z,99.99
2023-02-14T02:31:05.457Z,99.99
2023-02-14T02:32:05.629Z,99.99
2023-02-14T02:33:05.368Z,99.99
2023-02-14T02:34:05.340Z,99.99
2023-02-14T02:35:05.331Z,99.99
2023-02-14T02:36:05.326Z,99.99
2023-02-14T02:37:05.314Z,99.99
2023-02-14T02:38:05.315Z,99.99
2023-02-14T02:39:05.288Z,99.99
2023-02-14T02:40:05.279Z,99.99
2023-02-14T02:41:05.281Z,99.99
2023-02-14T02:42:05.256Z,99.99
2023-02-14T02:43:05.247Z,99.99
2023-02-14T02:44:05.248Z,99.99
2023-02-14T02:45:05.227Z,99.99
2023-02-14T02:46:05.281Z,99.99
2023-02-14T02:47:05.211Z,99.99
2023-02-14T02:48:05.212Z,99.99
2023-02-14T02:49:05.210Z,99.99
2023-02-14T02:50:05.175Z,99.99
2023-02-14T02:51:05.165Z,99.99
2023-02-14T02:52:05.154Z,99.99
2023-02-14T02:53:05.145Z,99.99
2023-02-14T02:54:05.140Z,99.99
2023-02-14T02:55:05.137Z,99.99
2023-02-14T02:56:05.114Z,99.99
2023-02-14T02:57:05.101Z,99.99
2023-02-14T02:58:05.108Z,99.99
2023-02-14T02:59:05.090Z,99.99
2023-02-14T03:00:05.080Z,99.99
2023-02-14T03:01:05.072Z,99.99
2023-02-14T03:02:05.054Z,99.99
2023-02-14T03:03:05.049Z,99.99
2023-02-14T03:04:05.033Z,99.99
2023-02-14T03:05:05.079Z,99.99
2023-02-14T03:06:05.017Z,99.99
2023-02-14T03:07:05.004Z,99.99
2023-02-14T03:08:05.002Z,99.99
2023-02-14T03:09:04.985Z,99.99
2023-02-14T03:10:05.071Z,99.99
2023-02-14T03:11:04.961Z,99.99
2023-02-14T03:12:04.971Z,99.99
2023-02-14T03:13:04.959Z,99.99
2023-02-14T03:14:04.938Z,99.99
2023-02-14T03:15:04.931Z,99.99
2023-02-14T03:16:05.017Z,99.99
2023-02-14T03:17:04.907Z,99.99
2023-02-14T03:18:04.892Z,99.99
2023-02-14T03:19:04.884Z,99.99
2023-02-14T03:20:05.128Z,99.99
2023-02-14T03:21:04.895Z,99.99
2023-02-14T03:22:04.871Z,99.99
2023-02-14T03:23:04.849Z,99.99
2023-02-14T03:24:04.839Z,99.99
2023-02-14T03:25:04.854Z,99.99
2023-02-14T03:26:04.819Z,99.99
2023-02-14T03:27:04.806Z,99.99
2023-02-14T03:28:04.795Z,99.99
2023-02-14T03:29:04.783Z,99.99
2023-02-14T03:30:04.791Z,99.99
2023-02-14T03:31:04.973Z,99.99
2023-02-14T03:32:04.889Z,99.99
2023-02-14T03:33:04.743Z,99.99
2023-02-14T03:34:04.737Z,99.99
2023-02-14T03:35:04.724Z,99.99
2023-02-14T03:36:04.721Z,99.99
2023-02-14T03:37:04.727Z,99.99
2023-02-14T03:38:04.697Z,99.99
2023-02-14T03:39:04.685Z,99.99
2023-02-14T03:40:04.684Z,99.99
2023-02-14T03:41:04.665Z,99.99
2023-02-14T03:42:06.163Z,99.99
2023-02-14T03:43:04.645Z,99.99
2023-02-14T03:44:04.631Z,99.99
2023-02-14T03:45:04.657Z,99.99
2023-02-14T03:46:04.701Z,99.99
2023-02-14T03:47:04.602Z,99.99
2023-02-14T03:48:04.596Z,99.99
2023-02-14T03:49:04.586Z,99.99
2023-02-14T03:50:04.583Z,99.99
2023-02-14T03:51:04.570Z,99.99
2023-02-14T03:52:04.557Z,99.99
2023-02-14T03:53:04.567Z,99.99
2023-02-14T03:54:04.535Z,99.99
2023-02-14T03:55:04.523Z,99.99
2023-02-14T03:56:04.528Z,99.99
2023-02-14T03:57:04.508Z,99.99
2023-02-14T03:58:04.523Z,99.99
2023-02-14T04:00:04.473Z,99.99
2023-02-14T04:01:04.572Z,99.99
2023-02-14T04:04:04.432Z,99.99
2023-02-14T04:05:04.425Z,99.99
2023-02-14T04:06:04.420Z,99.99
2023-02-14T04:09:04.411Z,99.99
2023-02-14T04:10:04.375Z,99.99
2023-02-14T04:21:04.267Z,99.99
2023-02-14T04:22:04.256Z,99.99
2023-02-14T04:23:04.245Z,99.99
2023-02-14T04:24:04.234Z,99.99
2023-02-14T04:25:04.256Z,99.99
2023-02-14T04:26:04.217Z,99.99
2023-02-14T04:27:04.205Z,99.99
2023-02-14T04:28:04.195Z,99.99
2023-02-14T04:29:04.184Z,99.99
2023-02-14T04:30:04.204Z,99.99
2023-02-14T04:32:04.306Z,99.99
2023-02-14T04:33:04.141Z,99.99
2023-02-14T04:34:04.129Z,99.99
2023-02-14T04:35:04.123Z,99.99
2023-02-14T04:36:04.120Z,99.99
2023-02-14T04:49:03.980Z,99.99
2023-02-14T04:51:03.960Z,99.99
2023-02-14T04:52:03.954Z,99.99
2023-02-14T04:53:03.938Z,99.99
2023-02-14T04:54:03.926Z,99.99
2023-02-14T04:55:03.929Z,99.99
2023-02-14T04:56:03.905Z,99.99
2023-02-14T04:57:03.924Z,99.99
2023-02-14T04:58:03.888Z,99.99
2023-02-14T04:59:03.885Z,99.99
2023-02-14T05:00:03.865Z,99.99
2023-02-14T05:01:03.990Z,99.99
2023-02-14T05:02:03.881Z,99.99
2023-02-14T05:03:03.834Z,99.99
2023-02-14T05:04:03.827Z,99.99
2023-02-14T05:05:03.819Z,99.99
2023-02-14T05:06:03.803Z,99.99
2023-02-14T05:07:03.796Z,99.99
2023-02-14T05:08:03.786Z,99.99
2023-02-14T05:09:03.784Z,99.99
2023-02-14T05:10:03.764Z,99.99
2023-02-14T05:11:03.756Z,99.99
2023-02-14T05:12:03.739Z,99.99
2023-02-14T05:13:03.862Z,99.99
2023-02-14T05:14:03.776Z,99.99
2023-02-14T05:15:03.712Z,99.99
2023-02-14T05:16:03.737Z,99.99
2023-02-14T05:17:03.698Z,99.99
2023-02-14T05:18:03.680Z,99.99
2023-02-14T05:19:03.669Z,99.99
2023-02-14T05:20:03.674Z,99.99
2023-02-14T05:21:03.657Z,99.99
2023-02-14T05:22:03.638Z,99.99
2023-02-14T05:23:03.669Z,99.99
2023-02-14T05:24:03.615Z,99.99
2023-02-14T05:25:03.610Z,99.99
2023-02-14T05:26:03.600Z,99.99
2023-02-14T05:27:03.594Z,99.99
2023-02-14T05:28:03.582Z,99.99
2023-02-14T05:29:03.598Z,99.99
2023-02-14T05:30:03.633Z,99.99
2023-02-14T05:31:04.128Z,99.99
2023-02-14T05:32:03.586Z,99.99
2023-02-14T05:33:03.523Z,99.99
2023-02-14T05:34:03.521Z,99.99
2023-02-14T05:35:03.528Z,99.99
2023-02-14T05:36:03.521Z,99.99
2023-02-14T05:37:03.484Z,99.99
2023-02-14T05:38:03.479Z,99.99
2023-02-14T05:39:03.462Z,99.99
2023-02-14T05:40:03.456Z,99.99
2023-02-14T05:41:03.442Z,99.99
2023-02-14T05:42:03.432Z,99.99
2023-02-14T05:43:03.446Z,99.99
2023-02-14T05:44:03.413Z,99.99
2023-02-14T05:45:03.534Z,99.99
2023-02-14T05:46:03.460Z,99.99
2023-02-14T05:53:03.324Z,99.99
2023-02-14T05:54:03.313Z,99.99
2023-02-14T05:59:03.263Z,99.99
2023-02-14T06:00:03.257Z,99.99
2023-02-14T06:01:03.279Z,99.99
2023-02-14T06:02:03.311Z,99.99
2023-02-14T06:03:03.229Z,99.99
2023-02-14T06:04:03.335Z,99.99
2023-02-14T06:05:03.215Z,99.99
2023-02-14T06:06:03.197Z,99.99
2023-02-14T06:07:03.189Z,99.99
2023-02-14T06:08:03.183Z,99.99
2023-02-14T06:09:03.186Z,99.99
2023-02-14T06:10:03.168Z,99.99
2023-02-14T06:11:03.146Z,99.99
2023-02-14T06:12:03.142Z,99.99
2023-02-14T06:13:03.128Z,99.99
2023-02-14T06:14:03.133Z,99.99
2023-02-14T06:15:03.107Z,99.99
2023-02-14T06:16:03.095Z,99.99
2023-02-14T06:17:03.193Z,99.99
2023-02-14T06:18:03.077Z,99.99
2023-02-14T06:19:03.065Z,99.99
2023-02-14T06:20:03.056Z,99.99
2023-02-14T06:21:03.052Z,99.99
2023-02-14T06:22:03.036Z,99.99
2023-02-14T06:23:03.036Z,99.99
2023-02-14T06:24:03.011Z,99.99
2023-02-14T06:25:03.013Z,99.99
2023-02-14T06:26:02.998Z,99.99
2023-02-14T06:27:03.002Z,99.99
2023-02-14T06:28:02.973Z,99.99
2023-02-14T06:29:02.964Z,99.99
2023-02-14T06:30:02.998Z,99.99
2023-02-14T06:31:03.452Z,99.99
2023-02-14T06:32:03.078Z,99.99
2023-02-14T06:33:02.950Z,99.99
2023-02-14T06:34:02.910Z,99.99
2023-02-14T06:35:02.899Z,99.99
2023-02-14T06:36:02.888Z,99.99
2023-02-14T06:37:02.880Z,99.99
2023-02-14T06:38:02.867Z,99.99
2023-02-14T06:39:02.857Z,99.99
2023-02-14T06:40:02.851Z,99.99
2023-02-14T06:41:03.232Z,99.99
2023-02-14T06:42:02.841Z,99.99
2023-02-14T06:43:02.819Z,99.99
2023-02-14T06:44:02.806Z,99.99
2023-02-14T06:45:02.808Z,99.99
2023-02-14T06:46:02.864Z,99.99
2023-02-14T06:47:02.791Z,99.99
2023-02-14T06:48:02.769Z,99.99
2023-02-14T06:49:02.796Z,99.99
2023-02-14T06:50:02.751Z,99.99
2023-02-14T06:51:02.955Z,99.99
2023-02-14T06:52:02.728Z,99.99
2023-02-14T06:53:02.714Z,99.99
2023-02-14T06:54:02.708Z,99.99
2023-02-14T06:55:02.701Z,99.99
2023-02-14T06:56:02.685Z,99.99
2023-02-14T06:57:02.677Z,99.99
2023-02-14T06:58:02.667Z,99.99
2023-02-14T06:59:02.661Z,99.99
2023-02-14T07:00:02.660Z,99.99
2023-02-14T07:01:02.970Z,99.99
2023-02-14T07:02:02.626Z,99.99
2023-02-14T07:03:02.671Z,99.99
2023-02-14T07:04:02.601Z,99.99
2023-02-14T07:05:02.625Z,99.99
2023-02-14T07:06:02.587Z,99.99
2023-02-14T07:07:02.575Z,99.99
2023-02-14T07:08:02.561Z,99.99
2023-02-14T07:09:02.552Z,99.99
2023-02-14T07:10:02.545Z,99.99
2023-02-14T07:11:02.948Z,99.99
2023-02-14T07:12:02.528Z,99.99
2023-02-14T07:13:02.511Z,99.99
2023-02-14T07:14:02.504Z,99.99
2023-02-14T07:15:02.499Z,99.99
2023-02-14T07:16:02.525Z,99.99
2023-02-14T07:17:02.470Z,99.99
2023-02-14T07:18:02.460Z,99.99
2023-02-14T07:19:02.448Z,99.99
2023-02-14T07:20:02.438Z,99.99
2023-02-14T07:21:02.982Z,99.99
2023-02-14T07:22:02.413Z,99.99
2023-02-14T07:23:02.403Z,99.99
2023-02-14T07:24:02.396Z,99.99
2023-02-14T07:25:02.392Z,99.99
2023-02-14T07:26:02.396Z,99.51
2023-02-14T07:27:02.365Z,99.20
2023-02-14T07:28:02.362Z,99.35
2023-02-14T07:29:02.348Z,99.25
2023-02-14T07:30:02.385Z,99.35
2023-02-14T07:31:02.840Z,98.94
2023-02-14T07:32:02.456Z,98.21
2023-02-14T07:33:02.305Z,97.48
2023-02-14T07:34:02.291Z,96.96
2023-02-14T07:35:02.281Z,96.09
2023-02-14T07:36:02.270Z,95.98
2023-02-14T07:37:02.296Z,99.04
2023-02-14T07:38:02.250Z,98.37
2023-02-14T07:39:02.248Z,98.84
2023-02-14T07:40:02.230Z,98.48
2023-02-14T07:41:02.415Z,97.85
2023-02-14T07:42:02.206Z,97.44
2023-02-14T07:43:02.211Z,97.75
2023-02-14T07:44:02.223Z,98.59
2023-02-14T07:45:12.518Z,98.69
2023-02-14T07:46:03.220Z,97.71
2023-02-14T07:47:02.161Z,97.29
2023-02-14T07:48:02.208Z,96.25
2023-02-14T07:49:02.135Z,94.79
2023-02-14T07:50:02.189Z,94.07
2023-02-14T07:51:02.809Z,92.77
2023-02-14T07:52:02.111Z,92.77
2023-02-14T07:53:02.123Z,91.07
2023-02-14T07:54:02.084Z,87.57
2023-02-14T07:55:02.079Z,84.35
2023-02-14T07:56:02.068Z,82.09
2023-02-14T07:57:02.063Z,80.09
2023-02-14T07:58:02.044Z,76.84
2023-02-14T07:59:02.035Z,75.67
2023-02-14T08:00:02.031Z,74.18
2023-02-14T08:01:02.478Z,72.80
2023-02-14T08:02:02.058Z,71.12
2023-02-14T08:03:01.991Z,70.22
2023-02-14T08:04:01.982Z,69.81
2023-02-14T08:05:02.044Z,69.47
2023-02-14T08:06:01.957Z,68.81
2023-02-14T08:07:01.964Z,67.88
2023-02-14T08:08:01.938Z,67.05
2023-02-14T08:09:01.958Z,67.64
2023-02-14T08:10:01.918Z,67.71
2023-02-14T08:11:02.217Z,67.37
2023-02-14T08:12:01.898Z,66.62
2023-02-14T08:13:01.906Z,65.87
2023-02-14T08:14:01.875Z,65.53
2023-02-14T08:15:01.863Z,65.42
2023-02-14T08:16:01.926Z,66.14
2023-02-14T08:17:01.842Z,66.94
2023-02-14T08:18:01.832Z,66.40
2023-02-14T08:19:01.820Z,65.67
2023-02-14T08:20:01.809Z,65.47
2023-02-14T08:21:02.216Z,64.82
2023-02-14T08:22:01.792Z,62.53
2023-02-14T08:23:01.780Z,61.37
2023-02-14T08:24:01.772Z,61.03
2023-02-14T08:25:01.788Z,60.44
2023-02-14T08:26:01.753Z,60.24
2023-02-14T08:27:01.732Z,60.08
2023-02-14T08:28:01.728Z,59.64
2023-02-14T08:29:01.713Z,59.41
2023-02-14T08:30:01.735Z,57.64
2023-02-14T08:31:02.153Z,55.51
2023-02-14T08:32:01.784Z,55.02
2023-02-14T08:33:01.669Z,55.48
2023-02-14T08:34:01.661Z,56.15
2023-02-14T08:35:01.644Z,57.20
2023-02-14T08:36:01.634Z,58.13
2023-02-14T08:37:01.639Z,61.66
2023-02-14T08:38:01.614Z,64.67
2023-02-14T08:39:01.610Z,65.09
2023-02-14T08:40:01.602Z,64.54
2023-02-14T08:41:03.778Z,65.00
2023-02-14T08:42:01.576Z,62.78
2023-02-14T08:43:01.616Z,60.56
2023-02-14T08:44:01.566Z,59.17
2023-02-14T08:45:01.558Z,57.07
2023-02-14T08:46:01.832Z,56.53
2023-02-14T08:47:01.597Z,56.02
2023-02-14T08:48:01.517Z,55.48
2023-02-14T08:49:01.498Z,55.94
2023-02-14T08:50:01.493Z,57.09
2023-02-14T08:51:01.854Z,56.73
2023-02-14T08:52:01.504Z,55.79
2023-02-14T08:53:01.503Z,54.51
2023-02-14T08:54:01.446Z,52.82
2023-02-14T08:55:01.438Z,51.47
2023-02-14T08:56:01.705Z,51.14
2023-02-14T08:57:01.464Z,50.96
2023-02-14T08:58:01.415Z,52.72
2023-02-14T08:59:01.397Z,53.90
2023-02-14T09:00:01.457Z,56.17
2023-02-14T09:01:01.994Z,55.35
2023-02-14T09:02:01.361Z,53.07
2023-02-14T09:03:01.376Z,52.85
2023-02-14T09:04:01.422Z,52.80
2023-02-14T09:05:01.336Z,50.96
2023-02-14T09:06:01.325Z,50.86
2023-02-14T09:07:01.371Z,51.44
2023-02-14T09:08:01.306Z,53.25
2023-02-14T09:09:02.546Z,53.90
2023-02-14T09:10:01.293Z,54.87
2023-02-14T09:11:01.628Z,54.79
2023-02-14T09:12:01.265Z,54.89
2023-02-14T09:13:01.311Z,54.99
2023-02-14T09:14:01.257Z,54.84
2023-02-14T09:15:01.282Z,54.20
2023-02-14T09:16:01.291Z,99.99
2023-02-14T09:17:01.323Z,53.33
2023-02-14T09:18:01.215Z,52.05
2023-02-14T09:19:01.282Z,52.85
2023-02-14T09:20:01.180Z,51.57
2023-02-14T09:21:01.602Z,52.46
2023-02-14T09:22:01.155Z,53.54
2023-02-14T09:23:01.150Z,54.46
2023-02-14T09:24:01.140Z,53.71
2023-02-14T09:25:01.160Z,53.84
2023-02-14T09:26:01.117Z,53.43
2023-02-14T09:27:01.119Z,52.87
2023-02-14T09:28:01.104Z,51.37
2023-02-14T09:29:01.129Z,49.53
2023-02-14T09:30:01.193Z,50.50
2023-02-14T09:31:01.433Z,50.50
2023-02-14T09:32:01.374Z,51.47
2023-02-14T09:33:01.047Z,51.67
2023-02-14T09:34:01.038Z,52.26
2023-02-14T09:35:01.026Z,50.06
2023-02-14T09:36:01.019Z,49.73
2023-02-14T09:37:01.012Z,49.51
2023-02-14T09:38:00.996Z,48.77
2023-02-14T09:39:00.988Z,46.91
2023-02-14T09:40:00.974Z,47.97
2023-02-14T09:41:01.264Z,48.08
2023-02-14T09:42:00.955Z,48.77
2023-02-14T09:43:02.063Z,48.38
2023-02-14T09:44:00.937Z,48.16
2023-02-14T09:45:00.969Z,47.11
2023-02-14T09:46:01.009Z,46.54
2023-02-14T09:47:00.914Z,46.25
2023-02-14T09:48:00.891Z,45.83
2023-02-14T09:49:01.005Z,44.66
2023-02-14T09:50:00.939Z,44.11
2023-02-14T09:51:01.232Z,43.34
2023-02-14T09:52:00.854Z,42.61
2023-02-14T09:53:00.847Z,42.10
2023-02-14T09:54:00.833Z,42.32
2023-02-14T09:55:00.826Z,43.81
2023-02-14T09:56:00.819Z,45.17
2023-02-14T09:57:00.815Z,46.50
2023-02-14T09:58:00.795Z,44.34
2023-02-14T09:59:00.780Z,44.87
2023-02-14T10:00:00.775Z,44.50
2023-02-14T10:01:01.093Z,44.52
2023-02-14T10:02:00.788Z,44.01
2023-02-14T10:03:00.744Z,44.21
2023-02-14T10:04:00.732Z,44.66
2023-02-14T10:05:00.725Z,44.64
2023-02-14T10:06:00.708Z,44.52
2023-02-14T10:07:00.703Z,43.97
2023-02-14T10:08:00.696Z,42.61
2023-02-14T10:09:00.679Z,40.83
2023-02-14T10:10:00.674Z,38.80
2023-02-14T10:11:01.029Z,39.55
2023-02-14T10:12:00.648Z,41.11
2023-02-14T10:13:00.638Z,41.76
2023-02-14T10:14:00.651Z,41.27
2023-02-14T10:15:00.623Z,40.72
2023-02-14T10:16:00.608Z,38.72
2023-02-14T10:17:00.744Z,37.48
2023-02-14T10:18:00.588Z,39.24
2023-02-14T10:19:00.587Z,40.77
2023-02-14T10:20:00.580Z,40.19
2023-02-14T10:21:01.021Z,40.80
2023-02-14T10:22:00.588Z,40.80
2023-02-14T10:23:00.538Z,39.53
2023-02-14T10:24:00.535Z,36.12
2023-02-14T10:25:00.520Z,35.58
2023-02-14T10:26:00.512Z,34.90
2023-02-14T10:27:00.503Z,34.38
2023-02-14T10:28:00.515Z,33.93
2023-02-14T10:29:00.481Z,34.53
2023-02-14T10:30:00.626Z,34.03
2023-02-14T10:31:00.938Z,30.79
2023-02-14T10:32:00.645Z,99.99
2023-02-14T10:33:00.446Z,32.73
2023-02-14T10:34:00.447Z,34.43
2023-02-14T10:35:00.439Z,34.30
2023-02-14T10:36:00.466Z,32.57
2023-02-14T10:37:00.472Z,31.24
2023-02-14T10:38:00.415Z,31.64
2023-02-14T10:39:00.383Z,30.07
2023-02-14T10:40:00.377Z,29.65
2023-02-14T10:41:00.648Z,29.77
2023-02-14T10:42:00.361Z,28.84
2023-02-14T10:43:00.349Z,29.65
2023-02-14T10:44:00.470Z,29.03
2023-02-14T10:45:00.325Z,28.31
2023-02-14T10:46:00.429Z,27.17
2023-02-14T10:47:00.304Z,27.80
2023-02-14T10:48:00.298Z,28.52
2023-02-14T10:49:00.288Z,26.98
2023-02-14T10:50:00.283Z,26.26
2023-02-14T10:51:00.540Z,27.51
2023-02-14T10:52:00.259Z,28.43
2023-02-14T10:53:00.244Z,27.72
2023-02-14T10:54:00.238Z,29.56
2023-02-14T10:55:00.278Z,27.62
2023-02-14T10:56:00.220Z,27.39
2023-02-14T10:57:00.210Z,25.84
2023-02-14T10:58:00.202Z,26.75
2023-02-14T10:59:00.196Z,26.23
2023-02-14T11:00:00.297Z,25.44
2023-02-14T11:01:00.557Z,25.83
2023-02-14T11:02:00.167Z,28.50
2023-02-14T11:03:00.150Z,29.14
2023-02-14T11:04:16.862Z,29.91
2023-02-14T11:05:00.178Z,28.87
2023-02-14T11:06:00.127Z,27.71
2023-02-14T11:08:59.140Z,26.80
2023-02-14T11:09:00.717Z,27.45
2023-02-14T11:11:50.583Z,29.05
2023-02-14T11:11:51.968Z,28.94
2023-02-14T11:12:51.962Z,27.91
2023-02-14T15:46:06.879Z,28.69
2023-02-14T15:46:08.339Z,24.73
2023-02-14T15:47:08.287Z,24.53
2023-02-14T15:48:08.271Z,24.32
2023-02-14T15:53:19.032Z,24.52
2023-02-14T15:53:20.450Z,24.15
2023-02-14T15:54:20.440Z,24.87
2023-02-14T15:55:29.916Z,26.10
2023-02-14T15:56:20.423Z,26.51
2023-02-14T15:57:20.409Z,26.84
2023-02-14T15:58:20.408Z,26.74
2023-02-14T15:59:20.386Z,27.74
2023-02-14T16:00:20.382Z,27.25
2023-02-14T16:01:20.468Z,27.37
2023-02-14T16:02:20.381Z,28.06
2023-02-14T16:03:20.361Z,27.44
2023-02-14T16:04:20.344Z,26.73
2023-02-14T16:05:20.325Z,27.22
2023-02-14T16:06:20.315Z,26.70
2023-02-14T16:07:20.308Z,26.03
2023-02-14T16:08:20.298Z,27.13
2023-02-14T16:09:20.289Z,27.54
2023-02-14T16:10:20.277Z,27.54
2023-02-14T16:11:20.267Z,28.07
2023-02-14T16:12:20.256Z,27.56
2023-02-14T16:13:20.260Z,28.25
2023-02-14T16:14:20.235Z,28.20
2023-02-14T16:15:20.242Z,28.83
2023-02-14T16:16:20.218Z,29.74
2023-02-14T16:17:20.228Z,29.85
2023-02-14T16:18:20.199Z,29.86
2023-02-14T16:19:20.188Z,29.46
2023-02-14T16:20:20.179Z,30.18
2023-02-14T16:21:20.178Z,30.29
2023-02-14T16:22:20.167Z,30.18
2023-02-14T16:23:20.147Z,29.56
2023-02-14T16:24:20.134Z,29.54
2023-02-14T16:25:20.125Z,29.04
2023-02-14T16:26:20.114Z,31.47
2023-02-14T16:27:20.155Z,31.60
2023-02-14T16:28:20.103Z,32.30
2023-02-14T16:29:20.088Z,32.74
2023-02-14T16:30:20.137Z,33.66
2023-02-14T16:31:20.178Z,34.30
2023-02-14T16:32:20.227Z,34.82
2023-02-14T16:33:20.075Z,35.22
2023-02-14T16:34:20.037Z,35.54
2023-02-14T16:35:20.024Z,36.18
2023-02-14T16:36:20.018Z,36.79
2023-02-14T16:37:20.011Z,37.21
2023-02-14T16:38:20.004Z,37.53
2023-02-14T16:39:19.989Z,37.86
2023-02-14T16:40:19.977Z,38.38
2023-02-14T16:41:19.964Z,38.78
2023-02-14T16:42:19.959Z,39.20
2023-02-14T16:43:19.958Z,39.63
2023-02-14T16:44:19.934Z,40.26
2023-02-14T16:45:19.931Z,41.09
2023-02-14T16:46:19.952Z,42.14
2023-02-14T16:47:19.904Z,42.89
2023-02-14T16:48:19.896Z,43.73
2023-02-14T16:49:19.908Z,44.15
2023-02-14T16:50:19.876Z,44.46
2023-02-14T16:51:19.862Z,44.99
2023-02-14T16:52:21.772Z,45.62
2023-02-14T16:53:19.846Z,46.03
2023-02-14T16:54:19.830Z,46.38
2023-02-14T16:55:19.825Z,46.71
2023-02-14T16:56:19.810Z,47.01
2023-02-14T16:57:19.806Z,47.44
2023-02-14T16:58:19.792Z,47.77
2023-02-14T16:59:19.781Z,48.08
2023-02-14T17:00:19.768Z,48.20
2023-02-14T17:01:19.815Z,48.41
2023-02-14T17:02:19.821Z,48.51
2023-02-14T17:03:19.742Z,48.84
2023-02-14T17:04:19.729Z,48.74
2023-02-14T17:05:19.865Z,49.16
2023-02-14T17:06:19.714Z,49.27
2023-02-14T17:07:19.702Z,49.16
2023-02-14T17:08:19.685Z,49.37
2023-02-14T17:09:19.678Z,49.49
2023-02-14T17:10:19.673Z,49.93
2023-02-14T17:11:19.672Z,49.93
2023-02-14T17:12:19.645Z,49.73
2023-02-14T17:13:19.637Z,50.03
2023-02-14T17:14:19.627Z,49.95
2023-02-14T17:15:19.628Z,49.85
2023-02-14T17:16:19.781Z,49.95
2023-02-14T17:17:19.595Z,50.36
2023-02-14T17:18:19.593Z,50.77
2023-02-14T17:19:19.575Z,51.31
2023-02-14T17:20:19.618Z,51.61
2023-02-14T17:21:19.590Z,52.02
2023-02-14T17:22:19.539Z,52.25
2023-02-14T17:23:19.543Z,52.46
2023-02-14T17:24:19.536Z,52.46
2023-02-14T17:25:19.513Z,52.49
2023-02-14T17:26:19.499Z,52.17
2023-02-14T17:27:19.502Z,51.97
2023-02-14T17:28:19.508Z,52.17
2023-02-14T17:29:19.467Z,52.17
2023-02-14T17:30:19.588Z,52.38
2023-02-14T17:31:19.540Z,52.07
2023-02-14T17:32:19.469Z,51.77
2023-02-14T17:33:19.425Z,51.66
2023-02-14T17:34:19.420Z,51.56
2023-02-14T17:35:19.417Z,51.36
2023-02-14T17:36:19.398Z,51.36
2023-02-14T17:37:19.521Z,51.15
2023-02-14T17:38:19.372Z,51.04
2023-02-14T17:39:19.365Z,51.15
2023-02-14T17:40:19.368Z,51.56
2023-02-14T17:41:19.347Z,52.17
2023-02-14T17:42:19.335Z,52.30
2023-02-14T17:43:19.320Z,52.41
2023-02-14T17:44:19.315Z,52.41
2023-02-14T17:45:19.407Z,52.71
2023-02-14T17:46:19.302Z,53.02
2023-02-14T17:47:19.280Z,52.33
2023-02-14T17:48:19.275Z,52.63
2023-02-14T17:49:19.264Z,52.61
2023-02-14T17:50:19.249Z,52.74
2023-02-14T17:51:19.243Z,52.84
2023-02-14T17:52:19.232Z,52.84
2023-02-14T17:53:19.242Z,53.25
2023-02-14T17:54:19.208Z,53.25
2023-02-14T17:55:19.200Z,53.46
2023-02-14T17:56:19.217Z,53.89
2023-02-14T17:57:19.179Z,54.20
2023-02-14T17:58:19.167Z,54.61
2023-02-14T17:59:19.154Z,54.74
2023-02-14T18:00:19.145Z,55.15
2023-02-14T18:01:19.136Z,55.15
2023-02-14T18:02:19.126Z,55.56
2023-02-14T18:03:19.117Z,55.79
2023-02-14T18:04:19.104Z,55.79
2023-02-14T18:05:19.092Z,56.10
2023-02-14T18:06:19.086Z,56.20
2023-02-14T18:07:19.076Z,56.54